createdAt,value
2023-01-21T00:01:18.948Z,12.11
2023-01-21T00:03:47.283Z,12.10
2023-01-21T00:06:16.140Z,12.09
2023-01-21T00:08:44.794Z,12.07
2023-01-21T00:11:15.460Z,12.06
2023-01-21T00:13:44.663Z,12.05
2023-01-21T00:16:13.971Z,12.02
2023-01-21T00:18:43.185Z,11.99
2023-01-21T00:21:11.323Z,11.96
2023-01-21T00:23:39.820Z,11.92
2023-01-21T00:26:11.058Z,11.89
2023-01-21T00:28:39.263Z,11.87
2023-01-21T00:31:09.022Z,11.83
2023-01-21T00:33:38.290Z,11.79
2023-01-21T00:36:13.239Z,11.75
2023-01-21T00:38:41.377Z,11.71
2023-01-21T00:41:13.036Z,11.67
2023-01-21T00:43:42.016Z,11.62
2023-01-21T00:46:11.522Z,11.58
2023-01-21T00:48:39.994Z,11.53
2023-01-21T00:51:09.035Z,11.49
2023-01-21T00:53:39.545Z,11.48
2023-01-21T00:56:11.757Z,11.44
2023-01-21T00:58:41.821Z,11.41
2023-01-21T01:01:18.286Z,11.37
2023-01-21T01:03:48.205Z,11.34
2023-01-21T01:06:22.413Z,11.30
2023-01-21T01:08:50.926Z,11.25
2023-01-21T01:11:19.617Z,11.23
2023-01-21T01:13:48.108Z,11.20
2023-01-21T01:16:16.868Z,11.17
2023-01-21T01:18:45.733Z,11.14
2023-01-21T01:21:20.860Z,11.12
2023-01-21T01:23:50.490Z,11.10
2023-01-21T01:26:20.422Z,11.08
2023-01-21T01:28:49.261Z,11.06
2023-01-21T01:31:19.356Z,11.05
2023-01-21T01:33:48.351Z,11.04
2023-01-21T01:36:20.272Z,11.02
2023-01-21T01:38:48.496Z,11.00
2023-01-21T01:41:20.980Z,10.96
2023-01-21T01:43:51.882Z,10.94
2023-01-21T01:46:21.185Z,10.92
2023-01-21T01:48:56.821Z,10.91
2023-01-21T01:51:57.733Z,10.89
2023-01-21T01:54:39.950Z,10.87
2023-01-21T01:57:12.925Z,10.85
2023-01-21T01:59:43.765Z,10.83
2023-01-21T02:02:16.090Z,10.82
2023-01-21T02:04:51.389Z,10.81
2023-01-21T02:07:23.743Z,10.79
2023-01-21T02:09:53.674Z,10.78
2023-01-21T02:12:23.642Z,10.76
2023-01-21T02:14:51.830Z,10.74
2023-01-21T02:17:48.819Z,10.73
2023-01-21T02:20:29.255Z,10.73
2023-01-21T02:23:12.173Z,10.72
2023-01-21T02:26:37.287Z,10.73
2023-01-21T02:29:19.290Z,10.70
2023-01-21T02:32:18.797Z,10.67
2023-01-21T02:34:55.162Z,10.65
2023-01-21T02:37:43.015Z,10.63
2023-01-21T02:40:25.859Z,10.63
2023-01-21T02:43:17.983Z,10.61
2023-01-21T02:46:00.083Z,10.60
2023-01-21T02:48:35.382Z,10.56
2023-01-21T02:51:05.339Z,10.52
2023-01-21T02:53:35.998Z,10.49
2023-01-21T02:56:12.823Z,10.45
2023-01-21T02:58:45.669Z,10.43
2023-01-21T03:01:42.879Z,10.40
2023-01-21T03:04:34.982Z,10.40
2023-01-21T03:07:13.642Z,10.43
2023-01-21T03:09:41.960Z,10.46
2023-01-21T03:12:35.589Z,10.47
2023-01-21T03:15:26.045Z,10.47
2023-01-21T03:18:10.409Z,10.45
2023-01-21T03:20:43.827Z,10.44
2023-01-21T03:23:35.106Z,10.44
2023-01-21T03:26:05.872Z,10.43
2023-01-21T03:28:39.097Z,10.41
2023-01-21T03:31:19.690Z,10.37
2023-01-21T03:33:52.983Z,10.33
2023-01-21T03:36:31.971Z,10.30
2023-01-21T03:39:07.831Z,10.28
2023-01-21T03:41:40.000Z,10.27
2023-01-21T03:44:08.571Z,10.27
2023-01-21T03:46:49.703Z,10.28
2023-01-21T03:49:42.195Z,10.30
2023-01-21T03:52:13.874Z,10.33
2023-01-21T03:54:42.049Z,10.34
2023-01-21T03:57:10.254Z,10.34
2023-01-21T03:59:38.514Z,10.35
2023-01-21T04:02:06.684Z,10.35
2023-01-21T04:04:35.661Z,10.35
2023-01-21T04:07:04.354Z,10.35
2023-01-21T04:09:32.584Z,10.34
2023-01-21T04:12:00.708Z,10.33
2023-01-21T04:14:28.909Z,10.32
2023-01-21T04:16:57.122Z,10.31
2023-01-21T04:19:25.342Z,10.30
2023-01-21T04:21:54.155Z,10.29
2023-01-21T04:24:22.475Z,10.26
2023-01-21T04:26:50.927Z,10.24
2023-01-21T04:29:19.278Z,10.23
2023-01-21T04:31:47.628Z,10.23
2023-01-21T04:34:15.834Z,10.21
2023-01-21T04:36:44.191Z,10.21
2023-01-21T04:39:12.572Z,10.20
2023-01-21T04:41:40.769Z,10.20
2023-01-21T04:44:09.273Z,10.19
2023-01-21T04:46:37.584Z,10.16
2023-01-21T04:49:05.711Z,10.15
2023-01-21T04:51:33.967Z,10.12
2023-01-21T04:54:02.183Z,10.11
2023-01-21T04:56:30.303Z,10.10
2023-01-21T04:58:59.028Z,10.08
2023-01-21T05:01:27.382Z,10.07
2023-01-21T05:03:55.721Z,10.05
2023-01-21T05:06:24.255Z,10.02
2023-01-21T05:08:52.413Z,10.00
2023-01-21T05:11:21.069Z,9.98
2023-01-21T05:13:49.236Z,9.98
2023-01-21T05:16:17.414Z,9.99
2023-01-21T05:18:46.750Z,9.99
2023-01-21T05:21:15.405Z,9.99
2023-01-21T05:23:43.625Z,9.98
2023-01-21T05:26:12.360Z,9.99
2023-01-21T05:28:40.919Z,10.00
2023-01-21T05:31:09.202Z,9.99
2023-01-21T05:33:37.878Z,9.97
2023-01-21T05:36:06.901Z,9.96
2023-01-21T05:38:35.028Z,9.92
2023-01-21T05:41:04.194Z,9.88
2023-01-21T05:43:32.427Z,9.86
2023-01-21T05:46:01.036Z,9.83
2023-01-21T05:48:29.163Z,9.80
2023-01-21T05:50:58.475Z,9.79
2023-01-21T05:53:27.562Z,9.81
2023-01-21T05:55:56.818Z,9.84
2023-01-21T05:58:26.271Z,9.86
2023-01-21T06:00:57.869Z,9.90
2023-01-21T06:03:26.410Z,9.93
2023-01-21T06:05:54.646Z,9.96
2023-01-21T06:08:23.259Z,9.97
2023-01-21T06:10:53.818Z,9.96
2023-01-21T06:13:23.247Z,9.95
2023-01-21T06:15:55.366Z,9.93
2023-01-21T06:18:24.361Z,9.92
2023-01-21T06:20:52.537Z,9.91
2023-01-21T06:23:20.942Z,9.92
2023-01-21T06:25:49.145Z,9.93
2023-01-21T06:28:17.719Z,9.94
2023-01-21T06:30:47.203Z,9.96
2023-01-21T06:33:15.528Z,9.97
2023-01-21T06:35:43.709Z,9.98
2023-01-21T06:38:11.994Z,10.01
2023-01-21T06:40:40.907Z,10.05
2023-01-21T06:43:09.259Z,10.08
2023-01-21T06:45:37.519Z,10.11
2023-01-21T06:48:05.855Z,10.13
2023-01-21T06:50:34.001Z,10.15
2023-01-21T06:53:02.537Z,10.16
2023-01-21T06:55:30.910Z,10.17
2023-01-21T06:58:00.369Z,10.18
2023-01-21T07:00:28.665Z,10.19
2023-01-21T07:02:57.963Z,10.19
2023-01-21T07:05:28.146Z,10.21
2023-01-21T07:07:57.533Z,10.22
2023-01-21T07:10:26.059Z,10.25
2023-01-21T07:12:54.260Z,10.26
2023-01-21T07:15:22.942Z,10.27
2023-01-21T07:17:51.247Z,10.28
2023-01-21T07:20:19.786Z,10.29
2023-01-21T07:22:49.058Z,10.31
2023-01-21T07:25:17.739Z,10.31
2023-01-21T07:27:46.860Z,10.32
2023-01-21T07:30:18.325Z,10.31
2023-01-21T07:32:47.614Z,10.29
2023-01-21T07:35:17.033Z,10.26
2023-01-21T07:37:45.475Z,10.24
2023-01-21T07:40:13.919Z,10.24
2023-01-21T07:42:42.228Z,10.22
2023-01-21T07:45:10.709Z,10.21
2023-01-21T07:47:38.860Z,10.24
2023-01-21T07:50:07.932Z,10.83
2023-01-21T07:52:36.326Z,12.30
2023-01-21T07:55:05.149Z,14.10
2023-01-21T07:57:34.521Z,15.95
2023-01-21T08:00:02.828Z,17.66
2023-01-21T08:02:34.962Z,18.85
2023-01-21T08:05:03.416Z,19.43
2023-01-21T08:07:32.621Z,19.78
2023-01-21T08:10:01.677Z,20.42
2023-01-21T08:12:29.758Z,21.43
2023-01-21T08:14:58.062Z,22.62
2023-01-21T08:17:26.283Z,23.85
2023-01-21T08:19:54.911Z,25.04
2023-01-21T08:22:24.176Z,26.04
2023-01-21T08:24:52.447Z,26.72
2023-01-21T08:27:20.596Z,26.97
2023-01-21T08:29:49.112Z,26.78
2023-01-21T08:32:19.387Z,26.70
2023-01-21T08:34:48.597Z,27.12
2023-01-21T08:37:17.109Z,27.84
2023-01-21T08:39:45.390Z,28.66
2023-01-21T08:42:13.633Z,29.51
2023-01-21T08:44:41.790Z,30.31
2023-01-21T08:47:10.566Z,31.06
2023-01-21T08:49:38.960Z,31.70
2023-01-21T08:52:07.598Z,32.23
2023-01-21T08:54:36.250Z,32.66
2023-01-21T08:57:04.428Z,33.12
2023-01-21T08:59:32.493Z,33.57
2023-01-21T09:02:00.995Z,33.98
2023-01-21T09:04:29.489Z,34.38
2023-01-21T09:06:57.698Z,34.80
2023-01-21T09:09:26.717Z,35.19
2023-01-21T09:11:55.287Z,35.56
2023-01-21T09:14:23.580Z,35.92
2023-01-21T09:16:51.882Z,36.28
2023-01-21T09:19:20.095Z,36.63
2023-01-21T09:21:48.287Z,36.95
2023-01-21T09:24:16.706Z,37.15
2023-01-21T09:26:45.037Z,37.23
2023-01-21T09:29:13.381Z,37.21
2023-01-21T09:31:41.766Z,37.03
2023-01-21T09:34:11.036Z,36.84
2023-01-21T09:36:39.712Z,36.67
2023-01-21T09:39:08.849Z,36.64
2023-01-21T09:41:43.573Z,36.61
2023-01-21T09:44:24.015Z,36.62
2023-01-21T09:46:56.141Z,36.75
2023-01-21T09:49:56.499Z,36.87
2023-01-21T09:52:46.478Z,37.09
2023-01-21T09:55:25.923Z,37.07
2023-01-21T09:58:41.840Z,36.54
2023-01-21T10:01:34.557Z,35.56
2023-01-21T10:04:40.632Z,34.42
2023-01-21T10:07:22.815Z,32.68
2023-01-21T10:10:26.431Z,31.42
2023-01-21T10:13:37.679Z,30.78
2023-01-21T10:16:31.487Z,30.41
2023-01-21T10:19:07.151Z,29.99
2023-01-21T10:21:45.660Z,29.65
2023-01-21T10:24:31.467Z,29.56
2023-01-21T10:27:00.663Z,29.50
2023-01-21T10:29:29.119Z,29.47
2023-01-21T10:32:05.175Z,29.42
2023-01-21T10:34:57.489Z,29.06
2023-01-21T10:37:30.969Z,28.65
2023-01-21T10:40:21.757Z,28.74
2023-01-21T10:43:03.757Z,29.33
2023-01-21T10:45:31.937Z,29.36
2023-01-21T10:48:10.614Z,28.97
2023-01-21T10:51:23.976Z,28.86
2023-01-21T10:54:07.453Z,28.92
2023-01-21T10:56:44.763Z,28.76
2023-01-21T10:59:20.792Z,28.55
2023-01-21T11:02:03.616Z,28.14
2023-01-21T11:04:33.144Z,27.44
2023-01-21T11:07:04.405Z,26.69
2023-01-21T11:09:37.661Z,26.11
2023-01-21T11:12:06.395Z,25.87
2023-01-21T11:14:34.825Z,26.00
2023-01-21T11:17:04.555Z,26.34
2023-01-21T11:19:32.869Z,26.54
2023-01-21T11:22:16.347Z,26.52
2023-01-21T11:24:50.631Z,26.56
2023-01-21T11:27:23.649Z,26.54
2023-01-21T11:29:52.097Z,26.53
2023-01-21T11:32:23.285Z,26.51
2023-01-21T11:35:00.866Z,26.71
2023-01-21T11:37:31.753Z,26.51
2023-01-21T11:40:07.644Z,25.93
2023-01-21T11:42:47.728Z,25.68
2023-01-21T11:45:33.147Z,25.72
2023-01-21T11:48:02.716Z,25.79
2023-01-21T11:50:36.210Z,25.56
2023-01-21T11:53:07.195Z,25.26
2023-01-21T11:55:45.653Z,25.07
2023-01-21T11:58:32.993Z,24.94
2023-01-21T12:01:05.937Z,24.94
2023-01-21T12:03:50.142Z,24.76
2023-01-21T12:06:22.148Z,24.17
2023-01-21T12:08:53.693Z,23.21
2023-01-21T12:11:25.544Z,22.25
2023-01-21T12:14:04.928Z,21.36
2023-01-21T12:16:59.547Z,20.51
2023-01-21T12:19:49.332Z,19.72
2023-01-21T12:22:33.006Z,19.02
2023-01-21T12:25:23.276Z,18.54
2023-01-21T12:28:00.612Z,18.22
2023-01-21T12:30:31.645Z,17.92
2023-01-21T12:33:12.968Z,17.75
2023-01-21T12:35:55.525Z,17.64
2023-01-21T12:38:45.055Z,17.43
2023-01-21T12:41:18.816Z,17.22
2023-01-21T12:43:52.562Z,16.98
2023-01-21T12:46:28.144Z,16.79
2023-01-21T12:49:06.350Z,16.59
2023-01-21T12:51:42.634Z,16.45
2023-01-21T12:54:36.760Z,16.40
2023-01-21T12:57:25.860Z,16.33
2023-01-21T13:00:14.283Z,16.24
2023-01-21T13:02:57.158Z,16.15
2023-01-21T13:06:04.087Z,16.07
2023-01-21T13:08:40.194Z,16.05
2023-01-21T13:11:20.464Z,16.00
2023-01-21T13:14:09.348Z,15.96
2023-01-21T13:16:49.084Z,16.00
2023-01-21T13:19:17.357Z,15.94
2023-01-21T13:22:14.861Z,15.88
2023-01-21T13:25:12.806Z,15.86
2023-01-21T13:27:55.372Z,15.80
2023-01-21T13:30:39.901Z,15.78
2023-01-21T13:33:46.107Z,15.84
2023-01-21T13:36:41.449Z,15.82
2023-01-21T13:39:44.482Z,15.74
2023-01-21T13:42:28.791Z,15.67
2023-01-21T13:45:25.347Z,15.55
2023-01-21T13:48:05.207Z,15.41
2023-01-21T13:51:07.449Z,15.30
2023-01-21T13:54:02.298Z,15.18
2023-01-21T13:56:50.219Z,15.16
2023-01-21T13:59:51.175Z,15.13
2023-01-21T14:02:46.212Z,15.12
2023-01-21T14:05:32.798Z,15.06
2023-01-21T14:08:33.563Z,15.04
2023-01-21T14:11:26.899Z,15.06
2023-01-21T14:14:47.161Z,15.09
2023-01-21T14:17:38.830Z,15.15
2023-01-21T14:20:31.326Z,15.14
2023-01-21T14:23:28.023Z,15.11
2023-01-21T14:26:18.216Z,15.06
2023-01-21T14:29:13.487Z,14.99
2023-01-21T14:31:47.768Z,14.94
2023-01-21T14:34:29.906Z,14.98
2023-01-21T14:37:16.176Z,15.07
2023-01-21T14:40:01.384Z,15.07
2023-01-21T14:42:45.584Z,15.06
2023-01-21T14:45:16.566Z,15.08
2023-01-21T14:47:54.640Z,15.08
2023-01-21T14:50:49.537Z,15.06
2023-01-21T14:53:26.406Z,15.06
2023-01-21T14:56:19.240Z,15.07
2023-01-21T14:59:00.439Z,15.09
2023-01-21T15:01:30.721Z,15.11
2023-01-21T15:04:03.425Z,15.10
2023-01-21T15:06:36.364Z,15.08
2023-01-21T15:09:06.150Z,15.04
2023-01-21T15:11:41.239Z,14.96
2023-01-21T15:14:12.128Z,14.86
2023-01-21T15:16:42.731Z,14.85
2023-01-21T15:19:14.096Z,14.92
2023-01-21T15:21:59.301Z,14.96
2023-01-21T15:24:39.528Z,14.94
2023-01-21T15:27:25.251Z,14.83
2023-01-21T15:29:59.234Z,14.74
2023-01-21T15:32:38.483Z,14.66
2023-01-21T15:35:33.302Z,14.61
2023-01-21T15:38:13.085Z,14.63
2023-01-21T15:40:48.440Z,14.65
2023-01-21T15:43:24.837Z,14.65
2023-01-21T15:46:02.142Z,14.63
2023-01-21T15:48:53.836Z,14.64
2023-01-21T15:51:49.779Z,14.68
2023-01-21T15:54:42.978Z,14.70
2023-01-21T15:57:42.266Z,14.71
2023-01-21T16:00:46.221Z,14.74
2023-01-21T16:03:27.742Z,14.74
2023-01-21T16:06:13.996Z,14.71
2023-01-21T16:09:14.977Z,14.72
2023-01-21T16:12:16.052Z,14.68
2023-01-21T16:15:15.984Z,14.62
2023-01-21T16:18:10.076Z,14.57
2023-01-21T16:20:43.959Z,14.49
2023-01-21T16:23:15.803Z,14.38
2023-01-21T16:25:49.620Z,14.31
2023-01-21T16:28:19.467Z,14.28
2023-01-21T16:30:57.023Z,14.24
2023-01-21T16:33:25.813Z,14.18
2023-01-21T16:36:01.596Z,14.10
2023-01-21T16:38:31.976Z,14.01
2023-01-21T16:41:12.509Z,13.95
2023-01-21T16:43:59.773Z,13.91
2023-01-21T16:46:34.954Z,13.88
2023-01-21T16:49:11.316Z,13.88
2023-01-21T16:51:42.360Z,13.89
2023-01-21T16:54:19.890Z,13.90
2023-01-21T16:57:15.240Z,13.89
2023-01-21T16:59:45.572Z,13.86
2023-01-21T17:02:24.630Z,13.81
2023-01-21T17:05:00.723Z,13.75
2023-01-21T17:07:41.795Z,13.64
2023-01-21T17:10:20.998Z,13.53
2023-01-21T17:12:55.222Z,13.46
2023-01-21T17:15:35.294Z,13.39
2023-01-21T17:18:06.290Z,13.34
2023-01-21T17:20:43.628Z,13.29
2023-01-21T17:23:31.938Z,13.22
2023-01-21T17:26:24.345Z,13.15
2023-01-21T17:29:11.126Z,13.09
2023-01-21T17:31:41.433Z,13.04
2023-01-21T17:34:15.735Z,12.99
2023-01-21T17:36:45.778Z,12.94
2023-01-21T17:39:14.330Z,12.89
2023-01-21T17:41:46.157Z,12.85
2023-01-21T17:44:21.043Z,12.80
2023-01-21T17:46:52.621Z,12.75
2023-01-21T17:49:25.878Z,12.71
2023-01-21T17:51:55.458Z,12.66
2023-01-21T17:54:26.661Z,12.62
2023-01-21T17:57:00.550Z,12.58
2023-01-21T17:59:37.185Z,12.54
2023-01-21T18:02:10.932Z,12.51
2023-01-21T18:04:40.880Z,12.48
2023-01-21T18:07:29.069Z,12.43
2023-01-21T18:10:01.208Z,12.39
2023-01-21T18:12:29.531Z,12.35
2023-01-21T18:14:57.722Z,12.31
2023-01-21T18:17:26.406Z,12.27
2023-01-21T18:19:57.037Z,12.22
2023-01-21T18:22:29.013Z,12.18
2023-01-21T18:24:57.287Z,12.14
2023-01-21T18:27:25.963Z,12.09
2023-01-21T18:29:56.465Z,12.05
2023-01-21T18:32:25.074Z,12.01
2023-01-21T18:34:53.287Z,11.98
2023-01-21T18:37:21.476Z,11.94
2023-01-21T18:39:50.054Z,11.90
2023-01-21T18:42:18.894Z,11.86
2023-01-21T18:44:47.032Z,11.80
2023-01-21T18:47:18.533Z,11.75
2023-01-21T18:49:46.641Z,11.69
2023-01-21T18:52:17.006Z,11.67
2023-01-21T18:54:46.072Z,11.63
2023-01-21T18:57:21.647Z,11.60
2023-01-21T18:59:50.082Z,11.56
2023-01-21T19:02:20.957Z,11.51
2023-01-21T19:04:49.349Z,11.46
2023-01-21T19:07:20.085Z,11.42
2023-01-21T19:09:48.908Z,11.38
2023-01-21T19:12:21.308Z,11.35
2023-01-21T19:14:50.202Z,11.31
2023-01-21T19:17:27.186Z,11.26
2023-01-21T19:19:58.084Z,11.21
2023-01-21T19:22:26.282Z,11.18
2023-01-21T19:24:55.863Z,11.16
2023-01-21T19:27:30.127Z,11.12
2023-01-21T19:29:58.445Z,11.06
2023-01-21T19:32:29.201Z,11.01
2023-01-21T19:34:58.035Z,10.97
2023-01-21T19:37:27.975Z,10.94
2023-01-21T19:39:56.943Z,10.92
2023-01-21T19:42:25.095Z,10.89
2023-01-21T19:44:53.637Z,10.86
2023-01-21T19:47:34.659Z,10.83
2023-01-21T19:50:03.254Z,10.80
2023-01-21T19:52:35.050Z,10.78
2023-01-21T19:55:06.667Z,10.77
2023-01-21T19:57:36.402Z,10.78
2023-01-21T20:00:16.913Z,10.78
2023-01-21T20:02:50.938Z,10.77
2023-01-21T20:05:23.016Z,10.78
2023-01-21T20:07:54.553Z,10.79
2023-01-21T20:10:29.611Z,10.80
2023-01-21T20:13:13.788Z,10.80
2023-01-21T20:15:45.517Z,10.80
2023-01-21T20:18:28.022Z,10.81
2023-01-21T20:20:57.754Z,10.81
2023-01-21T20:23:27.208Z,10.83
2023-01-21T20:25:58.900Z,10.83
2023-01-21T20:28:41.589Z,10.84
2023-01-21T20:31:12.371Z,10.83
2023-01-21T20:33:41.527Z,10.81
2023-01-21T20:36:20.133Z,10.80
2023-01-21T20:38:48.883Z,10.79
2023-01-21T20:41:17.083Z,10.79
2023-01-21T20:43:45.546Z,10.77
2023-01-21T20:46:27.722Z,10.76
2023-01-21T20:48:58.256Z,10.75
2023-01-21T20:51:31.254Z,10.74
2023-01-21T20:53:59.659Z,10.74
2023-01-21T20:56:32.108Z,10.74
2023-01-21T20:59:01.224Z,10.75
2023-01-21T21:01:30.930Z,10.75
2023-01-21T21:03:59.695Z,10.74
2023-01-21T21:06:29.410Z,10.71
2023-01-21T21:08:57.989Z,10.68
2023-01-21T21:11:26.225Z,10.65
2023-01-21T21:13:55.019Z,10.62
2023-01-21T21:16:29.228Z,10.59
2023-01-21T21:18:58.793Z,10.57
2023-01-21T21:21:28.159Z,10.53
2023-01-21T21:23:56.668Z,10.50
2023-01-21T21:26:27.830Z,10.49
2023-01-21T21:28:56.443Z,10.48
2023-01-21T21:31:26.235Z,10.47
2023-01-21T21:33:59.879Z,10.44
2023-01-21T21:36:30.577Z,10.42
2023-01-21T21:38:59.109Z,10.41
2023-01-21T21:41:27.892Z,10.42
2023-01-21T21:43:56.490Z,10.41
2023-01-21T21:46:24.871Z,10.39
2023-01-21T21:48:53.763Z,10.38
2023-01-21T21:51:22.425Z,10.37
2023-01-21T21:53:51.557Z,10.36
2023-01-21T21:56:22.804Z,10.35
2023-01-21T21:58:51.780Z,10.33
2023-01-21T22:01:21.055Z,10.32
2023-01-21T22:03:50.464Z,10.30
2023-01-21T22:06:21.160Z,10.28
2023-01-21T22:08:49.903Z,10.24
2023-01-21T22:11:20.627Z,10.22
2023-01-21T22:13:50.866Z,10.19
2023-01-21T22:16:27.519Z,10.15
2023-01-21T22:18:57.678Z,10.10
2023-01-21T22:21:31.249Z,10.05
2023-01-21T22:24:00.647Z,10.00
2023-01-21T22:26:29.972Z,9.96
2023-01-21T22:29:00.044Z,9.93
2023-01-21T22:31:31.353Z,9.92
2023-01-21T22:34:01.049Z,9.92
2023-01-21T22:36:30.611Z,9.93
2023-01-21T22:38:59.684Z,9.95
2023-01-21T22:41:28.964Z,9.96
2023-01-21T22:43:57.974Z,9.97
2023-01-21T22:46:28.530Z,9.97
2023-01-21T22:48:57.907Z,9.97
2023-01-21T22:51:27.024Z,9.98
2023-01-21T22:53:56.158Z,9.99
2023-01-21T22:56:44.991Z,9.98
2023-01-21T22:59:14.576Z,9.96
2023-01-21T23:01:43.009Z,9.95
2023-01-21T23:04:14.894Z,9.94
2023-01-21T23:06:43.693Z,9.90
2023-01-21T23:09:15.608Z,9.87
2023-01-21T23:11:44.222Z,9.84
2023-01-21T23:14:12.369Z,9.82
2023-01-21T23:16:41.463Z,9.80
2023-01-21T23:19:10.042Z,9.79
2023-01-21T23:21:38.176Z,9.77
2023-01-21T23:24:07.692Z,9.76
2023-01-21T23:26:37.014Z,9.75
2023-01-21T23:29:05.304Z,9.75
2023-01-21T23:31:33.563Z,9.76
2023-01-21T23:34:02.505Z,9.78
2023-01-21T23:36:31.311Z,9.78
2023-01-21T23:39:00.723Z,9.78
2023-01-21T23:41:29.502Z,9.77
2023-01-21T23:44:02.109Z,9.75
2023-01-21T23:46:30.697Z,9.73
2023-01-21T23:48:59.567Z,9.70
2023-01-21T23:51:28.132Z,9.68
2023-01-21T23:53:57.030Z,9.65
2023-01-21T23:56:26.168Z,9.61
2023-01-21T23:58:54.809Z,9.57
